createdAt,value
2018-07-26T00:00:05.800Z,99.90
2018-07-26T00:02:33.395Z,99.90
2018-07-26T00:05:01.015Z,99.90
2018-07-26T00:07:28.622Z,99.90
2018-07-26T00:09:56.264Z,99.90
2018-07-26T00:12:23.863Z,99.90
2018-07-26T00:14:51.497Z,99.90
2018-07-26T00:17:19.095Z,99.90
2018-07-26T00:19:46.726Z,99.90
2018-07-26T00:22:14.327Z,99.90
2018-07-26T00:27:09.472Z,99.90
2018-07-26T00:29:37.092Z,99.90
2018-07-26T00:32:04.688Z,99.90
2018-07-26T00:34:32.304Z,99.90
2018-07-26T00:36:59.901Z,99.90
2018-07-26T00:39:27.512Z,99.90
2018-07-26T00:41:55.111Z,99.90
2018-07-26T00:44:22.722Z,99.90
2018-07-26T00:46:50.314Z,99.90
2018-07-26T00:49:17.936Z,99.90
2018-07-26T00:51:45.539Z,99.90
2018-07-26T00:54:13.192Z,99.90
2018-07-26T00:56:40.788Z,99.90
2018-07-26T00:59:08.408Z,99.90
2018-07-26T01:01:36.003Z,99.90
2018-07-26T01:04:03.615Z,99.90
2018-07-26T01:06:31.231Z,99.90
2018-07-26T01:08:58.831Z,99.90
2018-07-26T01:11:26.438Z,99.90
2018-07-26T01:13:54.063Z,99.90
2018-07-26T01:16:21.679Z,99.90
2018-07-26T01:18:49.279Z,99.90
2018-07-26T01:21:16.900Z,99.90
2018-07-26T01:23:44.518Z,99.90
2018-07-26T01:26:12.136Z,99.90
2018-07-26T01:28:39.754Z,99.90
2018-07-26T01:31:07.389Z,99.90
2018-07-26T01:33:34.987Z,99.90
2018-07-26T01:36:02.609Z,99.90
2018-07-26T01:38:30.203Z,99.90
2018-07-26T01:40:57.823Z,99.90
2018-07-26T01:43:33.872Z,99.90
2018-07-26T01:46:01.491Z,99.90
2018-07-26T01:48:29.083Z,99.90
2018-07-26T01:50:56.695Z,99.90
2018-07-26T01:53:24.294Z,99.90
2018-07-26T01:55:51.910Z,99.90
2018-07-26T01:58:19.506Z,99.90
2018-07-26T02:00:47.124Z,99.90
2018-07-26T02:03:14.722Z,99.90
2018-07-26T02:05:42.376Z,99.90
2018-07-26T02:08:09.976Z,99.90
2018-07-26T02:10:37.640Z,99.90
2018-07-26T02:13:05.331Z,99.90
2018-07-26T02:15:32.951Z,99.90
2018-07-26T02:18:00.580Z,99.90
2018-07-26T02:20:28.204Z,99.90
2018-07-26T02:22:55.839Z,99.90
2018-07-26T02:25:23.441Z,99.90
2018-07-26T02:27:51.063Z,99.90
2018-07-26T02:30:18.671Z,99.90
2018-07-26T02:32:46.283Z,99.90
2018-07-26T02:35:13.887Z,99.90
2018-07-26T02:37:41.504Z,99.90
2018-07-26T02:40:09.116Z,99.90
2018-07-26T02:42:36.742Z,99.90
2018-07-26T02:45:04.444Z,99.90
2018-07-26T02:47:32.052Z,99.90
2018-07-26T02:49:59.663Z,99.90
2018-07-26T02:52:27.261Z,99.90
2018-07-26T02:54:54.878Z,99.90
2018-07-26T02:57:22.484Z,99.90
2018-07-26T02:59:50.096Z,99.90
2018-07-26T03:02:17.687Z,99.90
2018-07-26T03:04:45.300Z,99.90
2018-07-26T03:07:12.930Z,99.90
2018-07-26T03:09:40.540Z,99.90
2018-07-26T03:12:08.200Z,99.90
2018-07-26T03:14:41.259Z,99.90
2018-07-26T03:17:08.851Z,99.90
2018-07-26T03:19:36.475Z,99.90
2018-07-26T03:22:04.075Z,99.90
2018-07-26T03:24:31.705Z,99.90
2018-07-26T03:26:59.304Z,99.90
2018-07-26T03:29:26.923Z,99.90
2018-07-26T03:31:54.516Z,99.90
2018-07-26T03:34:22.147Z,99.90
2018-07-26T03:36:49.747Z,99.90
2018-07-26T03:39:17.341Z,99.90
2018-07-26T03:41:44.951Z,99.90
2018-07-26T03:44:12.889Z,99.90
2018-07-26T03:46:40.507Z,99.90
2018-07-26T03:49:08.106Z,99.90
2018-07-26T03:51:35.721Z,99.90
2018-07-26T03:54:03.312Z,99.90
2018-07-26T03:56:30.927Z,99.90
2018-07-26T03:58:58.518Z,99.90
2018-07-26T04:01:26.136Z,99.90
2018-07-26T04:03:53.735Z,99.90
2018-07-26T04:06:21.572Z,99.90
2018-07-26T04:08:49.167Z,99.90
2018-07-26T04:11:16.787Z,99.90
2018-07-26T04:13:44.402Z,99.90
2018-07-26T04:16:12.156Z,99.90
2018-07-26T04:18:39.788Z,99.90
2018-07-26T04:21:07.398Z,99.90
2018-07-26T04:23:35.012Z,99.90
2018-07-26T04:26:02.626Z,99.90
2018-07-26T04:28:30.259Z,99.90
2018-07-26T04:30:57.855Z,99.90
2018-07-26T04:33:25.467Z,99.90
2018-07-26T04:35:53.063Z,99.90
2018-07-26T04:38:20.683Z,99.90
2018-07-26T04:40:48.316Z,99.90
2018-07-26T04:43:15.926Z,99.90
2018-07-26T04:45:43.524Z,99.90
2018-07-26T04:48:11.143Z,99.90
2018-07-26T04:50:39.291Z,99.90
2018-07-26T04:53:06.912Z,99.90
2018-07-26T04:55:34.736Z,99.90
2018-07-26T04:58:02.402Z,99.90
2018-07-26T05:00:30.189Z,99.90
2018-07-26T05:02:57.778Z,99.90
2018-07-26T05:05:25.396Z,99.90
2018-07-26T05:07:53.067Z,99.90
2018-07-26T05:10:20.907Z,99.90
2018-07-26T05:12:48.503Z,99.90
2018-07-26T05:15:16.138Z,99.90
2018-07-26T05:17:43.735Z,99.90
2018-07-26T05:20:11.352Z,99.90
2018-07-26T05:22:39.659Z,99.90
2018-07-26T05:25:07.272Z,99.90
2018-07-26T05:27:34.909Z,99.90
2018-07-26T05:30:02.527Z,99.90
2018-07-26T05:32:30.120Z,99.90
2018-07-26T05:34:57.739Z,99.90
2018-07-26T05:37:25.356Z,99.90
2018-07-26T05:39:52.979Z,99.90
2018-07-26T05:42:20.583Z,99.90
2018-07-26T05:44:48.239Z,99.90
2018-07-26T05:47:15.839Z,99.90
2018-07-26T05:49:43.439Z,99.90
2018-07-26T05:52:11.076Z,99.90
2018-07-26T05:54:38.688Z,99.90
2018-07-26T05:57:06.309Z,99.90
2018-07-26T05:59:33.907Z,99.90
2018-07-26T06:02:01.531Z,99.90
2018-07-26T06:04:29.232Z,99.90
2018-07-26T06:06:57.024Z,99.90
2018-07-26T06:09:24.631Z,99.90
2018-07-26T06:11:52.243Z,99.90
2018-07-26T06:14:20.031Z,99.90
2018-07-26T06:16:47.658Z,99.90
2018-07-26T06:19:15.246Z,99.90
2018-07-26T06:21:42.862Z,99.90
2018-07-26T06:24:10.467Z,99.90
2018-07-26T06:26:38.311Z,99.90
2018-07-26T06:29:05.951Z,99.90
2018-07-26T06:31:33.567Z,99.90
2018-07-26T06:34:01.168Z,99.90
2018-07-26T06:36:28.796Z,99.90
2018-07-26T06:38:56.435Z,99.90
2018-07-26T06:41:24.055Z,99.90
2018-07-26T06:43:51.715Z,99.90
2018-07-26T06:46:19.332Z,99.90
2018-07-26T06:48:46.931Z,99.90
2018-07-26T06:51:14.543Z,99.90
2018-07-26T06:53:42.140Z,99.90
2018-07-26T06:56:09.735Z,99.90
2018-07-26T06:58:37.352Z,99.90
2018-07-26T07:01:05.007Z,99.90
2018-07-26T07:03:32.623Z,99.90
2018-07-26T07:06:00.243Z,99.90
2018-07-26T07:08:27.879Z,99.90
2018-07-26T07:10:55.823Z,99.90
2018-07-26T07:13:23.490Z,99.90
2018-07-26T07:15:51.117Z,99.90
2018-07-26T07:18:19.179Z,99.90
2018-07-26T07:20:46.784Z,99.90
2018-07-26T07:23:14.402Z,99.90
2018-07-26T07:25:41.998Z,99.90
2018-07-26T07:28:09.623Z,99.90
2018-07-26T07:30:37.219Z,99.90
2018-07-26T07:33:04.877Z,99.90
2018-07-26T07:35:32.539Z,99.90
2018-07-26T07:38:00.134Z,99.90
2018-07-26T07:40:27.727Z,99.90
2018-07-26T07:42:55.343Z,99.90
2018-07-26T07:45:23.040Z,99.90
2018-07-26T07:47:50.663Z,99.90
2018-07-26T07:50:18.269Z,99.90
2018-07-26T07:52:45.919Z,99.90
2018-07-26T07:55:13.508Z,99.90
2018-07-26T07:57:41.112Z,99.90
2018-07-26T08:02:36.655Z,99.90
2018-07-26T08:05:04.566Z,99.90
2018-07-26T08:07:32.171Z,99.90
2018-07-26T08:09:59.787Z,99.90
2018-07-26T08:12:27.383Z,99.90
2018-07-26T08:14:55.015Z,99.90
2018-07-26T08:17:22.610Z,99.90
2018-07-26T08:19:50.228Z,99.90
2018-07-26T08:22:17.824Z,99.90
2018-07-26T08:24:45.443Z,99.90
2018-07-26T08:27:13.038Z,99.90
2018-07-26T08:29:40.664Z,99.90
2018-07-26T08:32:08.287Z,99.90
2018-07-26T08:34:35.899Z,99.90
2018-07-26T08:37:03.503Z,99.90
2018-07-26T08:39:31.123Z,99.90
2018-07-26T08:41:58.735Z,99.90
2018-07-26T08:44:26.354Z,99.90
2018-07-26T08:46:53.951Z,99.90
2018-07-26T08:49:21.566Z,99.90
2018-07-26T08:51:49.164Z,99.90
2018-07-26T08:54:16.850Z,99.90
2018-07-26T08:56:44.410Z,99.90
2018-07-26T08:59:12.008Z,99.90
2018-07-26T09:01:39.623Z,99.90
2018-07-26T09:04:07.223Z,99.90
2018-07-26T09:06:34.892Z,99.90
2018-07-26T09:09:03.438Z,99.90
2018-07-26T09:11:31.125Z,99.90
2018-07-26T09:13:58.737Z,99.90
2018-07-26T09:16:26.371Z,99.90
2018-07-26T09:18:53.971Z,99.90
2018-07-26T09:23:48.922Z,99.90
2018-07-26T09:26:16.566Z,99.90
2018-07-26T09:28:44.152Z,99.90
2018-07-26T09:31:11.784Z,99.90
2018-07-26T09:33:39.381Z,99.90
2018-07-26T09:36:07.012Z,99.90
2018-07-26T09:38:34.640Z,99.90
2018-07-26T09:41:02.308Z,99.90
2018-07-26T09:43:29.895Z,99.90
2018-07-26T09:45:57.562Z,99.90
2018-07-26T09:48:25.235Z,99.90
2018-07-26T09:53:20.231Z,99.90
2018-07-26T09:55:49.003Z,99.90
2018-07-26T09:58:16.891Z,99.90
2018-07-26T10:00:49.999Z,99.90
2018-07-26T10:03:17.624Z,99.90
2018-07-26T10:05:45.218Z,99.90
2018-07-26T10:08:12.843Z,99.90
2018-07-26T10:10:40.435Z,99.90
2018-07-26T10:13:08.056Z,99.90
2018-07-26T10:15:35.676Z,99.90
2018-07-26T10:18:03.298Z,99.90
2018-07-26T10:20:31.144Z,99.90
2018-07-26T10:22:58.760Z,99.90
2018-07-26T10:25:26.362Z,99.90
2018-07-26T10:27:54.069Z,99.90
2018-07-26T10:30:21.691Z,99.90
2018-07-26T10:32:49.323Z,99.90
2018-07-26T10:35:16.959Z,99.90
2018-07-26T10:37:44.601Z,99.90
2018-07-26T10:40:12.203Z,99.90
2018-07-26T10:42:39.851Z,99.90
2018-07-26T10:45:07.447Z,99.90
2018-07-26T10:47:35.062Z,99.90
2018-07-26T10:50:03.258Z,99.90
2018-07-26T10:52:30.863Z,99.90
2018-07-26T10:54:58.451Z,99.90
2018-07-26T10:57:26.200Z,99.90
2018-07-26T10:59:53.809Z,99.10
2018-07-26T11:02:21.439Z,98.70
2018-07-26T11:04:49.039Z,98.30
2018-07-26T11:07:16.695Z,99.30
2018-07-26T11:09:44.287Z,99.60
2018-07-26T11:12:11.884Z,99.40
2018-07-26T11:14:39.522Z,98.80
2018-07-26T11:17:07.218Z,98.70
2018-07-26T11:19:34.967Z,98.60
2018-07-26T11:22:02.577Z,99.90
2018-07-26T11:24:30.211Z,99.90
2018-07-26T11:26:57.834Z,99.90
2018-07-26T11:29:25.456Z,99.90
2018-07-26T11:31:53.090Z,99.90
2018-07-26T11:34:20.767Z,99.90
2018-07-26T11:36:48.363Z,99.20
2018-07-26T11:39:15.984Z,99.10
2018-07-26T11:41:43.643Z,99.30
2018-07-26T11:44:11.254Z,98.10
2018-07-26T11:46:38.865Z,98.80
2018-07-26T11:49:06.480Z,97.80
2018-07-26T11:51:34.075Z,98.40
2018-07-26T11:54:01.688Z,97.30
2018-07-26T11:56:29.290Z,97.10
2018-07-26T11:58:56.907Z,98.50
2018-07-26T12:01:24.595Z,98.90
2018-07-26T12:03:52.223Z,97.60
2018-07-26T12:06:19.819Z,96.40
2018-07-26T12:08:47.544Z,96.50
2018-07-26T12:11:15.203Z,97.10
2018-07-26T12:13:42.811Z,95.80
2018-07-26T12:16:10.728Z,95.50
2018-07-26T12:18:38.446Z,95.20
2018-07-26T12:21:06.063Z,97.40
2018-07-26T12:23:33.659Z,97.50
2018-07-26T12:26:01.279Z,96.90
2018-07-26T12:28:28.888Z,96.80
2018-07-26T12:30:56.508Z,96.40
2018-07-26T12:33:24.262Z,95.00
2018-07-26T12:35:51.911Z,95.10
2018-07-26T12:38:19.519Z,95.80
2018-07-26T12:40:47.154Z,95.50
2018-07-26T12:43:14.767Z,94.50
2018-07-26T12:45:42.384Z,94.90
2018-07-26T12:48:10.014Z,94.70
2018-07-26T12:50:37.679Z,96.40
2018-07-26T12:53:05.375Z,97.00
2018-07-26T12:55:33.002Z,95.40
2018-07-26T12:58:00.627Z,94.90
2018-07-26T13:00:28.243Z,94.80
2018-07-26T13:02:55.856Z,95.90
2018-07-26T13:05:23.459Z,93.60
2018-07-26T13:07:51.086Z,93.10
2018-07-26T13:10:18.684Z,92.60
2018-07-26T13:12:46.306Z,92.50
2018-07-26T13:15:13.924Z,91.50
2018-07-26T13:17:41.531Z,91.60
2018-07-26T13:20:09.599Z,89.80
2018-07-26T13:22:37.212Z,91.30
2018-07-26T13:25:05.161Z,92.00
2018-07-26T13:27:32.798Z,92.30
2018-07-26T13:32:27.868Z,91.60
2018-07-26T13:34:55.465Z,91.20
2018-07-26T13:37:23.079Z,90.40
2018-07-26T13:39:50.713Z,90.20
2018-07-26T13:42:18.335Z,92.80
2018-07-26T13:44:45.936Z,90.20
2018-07-26T13:47:13.551Z,88.60
2018-07-26T13:49:41.161Z,88.90
2018-07-26T13:52:08.790Z,88.70
2018-07-26T13:54:36.484Z,90.60
2018-07-26T13:57:04.091Z,89.10
2018-07-26T13:59:31.708Z,94.60
2018-07-26T14:01:59.299Z,89.70
2018-07-26T14:04:26.911Z,94.80
2018-07-26T14:06:54.503Z,94.80
2018-07-26T14:09:22.122Z,91.90
2018-07-26T14:11:49.726Z,92.60
2018-07-26T14:14:17.375Z,90.70
2018-07-26T14:16:45.075Z,90.40
2018-07-26T14:19:12.683Z,90.50
2018-07-26T14:21:40.320Z,88.80
2018-07-26T14:24:13.471Z,85.60
2018-07-26T14:26:41.123Z,86.10
2018-07-26T14:29:08.738Z,91.30
2018-07-26T14:31:36.335Z,87.30
2018-07-26T14:34:03.956Z,90.90
2018-07-26T14:36:31.551Z,85.10
2018-07-26T14:38:59.168Z,82.80
2018-07-26T14:43:54.171Z,91.40
2018-07-26T14:46:21.776Z,90.70
2018-07-26T14:48:49.399Z,92.00
2018-07-26T14:51:16.991Z,84.10
2018-07-26T14:53:44.606Z,83.20
2018-07-26T14:56:12.220Z,87.10
2018-07-26T14:58:39.882Z,83.70
2018-07-26T15:01:07.768Z,84.50
2018-07-26T15:03:35.367Z,89.10
2018-07-26T15:06:02.984Z,88.00
2018-07-26T15:08:30.584Z,83.90
2018-07-26T15:10:58.205Z,83.70
2018-07-26T15:13:26.103Z,80.60
2018-07-26T15:15:53.753Z,84.60
2018-07-26T15:18:21.355Z,79.40
2018-07-26T15:20:49.029Z,85.20
2018-07-26T15:23:16.640Z,83.90
2018-07-26T15:25:44.261Z,80.60
2018-07-26T15:28:11.927Z,88.00
2018-07-26T15:30:39.545Z,90.80
2018-07-26T15:33:07.152Z,86.10
2018-07-26T15:35:34.777Z,92.30
2018-07-26T15:38:02.377Z,85.90
2018-07-26T15:40:30.008Z,82.40
2018-07-26T15:42:57.616Z,86.70
2018-07-26T15:45:25.231Z,80.10
2018-07-26T15:47:52.831Z,77.90
2018-07-26T15:50:20.447Z,79.60
2018-07-26T15:52:48.054Z,84.50
2018-07-26T15:55:15.711Z,83.20
2018-07-26T15:57:43.319Z,81.00
2018-07-26T16:00:11.833Z,81.00
2018-07-26T16:02:39.499Z,75.90
2018-07-26T16:05:07.146Z,76.80
2018-07-26T16:07:34.988Z,74.50
2018-07-26T16:10:02.599Z,84.60
2018-07-26T16:12:30.276Z,83.50
2018-07-26T16:14:57.904Z,77.10
2018-07-26T16:17:25.545Z,82.70
2018-07-26T16:19:53.157Z,79.40
2018-07-26T16:22:20.847Z,85.90
2018-07-26T16:24:48.434Z,82.60
2018-07-26T16:27:17.331Z,86.10
2018-07-26T16:29:44.990Z,74.50
2018-07-26T16:32:12.602Z,84.80
2018-07-26T16:34:40.204Z,82.90
2018-07-26T16:37:07.831Z,73.10
2018-07-26T16:39:35.432Z,71.30
2018-07-26T16:42:03.048Z,74.00
2018-07-26T16:44:30.648Z,74.00
2018-07-26T16:46:58.239Z,79.30
2018-07-26T16:49:26.174Z,81.10
2018-07-26T16:51:53.799Z,77.40
2018-07-26T16:54:21.416Z,81.50
2018-07-26T16:56:49.017Z,78.60
2018-07-26T16:59:16.641Z,80.10
2018-07-26T17:01:44.292Z,77.00
2018-07-26T17:04:11.907Z,76.80
2018-07-26T17:06:39.539Z,76.70
2018-07-26T17:09:08.163Z,80.90
2018-07-26T17:11:35.757Z,78.50
2018-07-26T17:14:03.523Z,85.40
2018-07-26T17:16:31.139Z,82.60
2018-07-26T17:18:58.769Z,81.50
2018-07-26T17:21:26.379Z,85.60
2018-07-26T17:23:53.993Z,85.80
2018-07-26T17:26:21.664Z,83.10
2018-07-26T17:28:49.258Z,78.90
2018-07-26T17:31:16.871Z,82.30
2018-07-26T17:33:44.494Z,79.10
2018-07-26T17:36:12.109Z,78.60
2018-07-26T17:38:39.727Z,82.30
2018-07-26T17:41:07.362Z,86.80
2018-07-26T17:43:34.965Z,80.60
2018-07-26T17:46:02.577Z,90.60
2018-07-26T17:48:30.227Z,90.90
2018-07-26T17:50:57.855Z,91.80
2018-07-26T17:53:25.452Z,89.20
2018-07-26T17:55:53.072Z,90.50
2018-07-26T17:58:20.712Z,88.60
2018-07-26T18:00:48.331Z,91.00
2018-07-26T18:03:15.953Z,88.50
2018-07-26T18:05:43.563Z,86.90
2018-07-26T18:08:11.186Z,90.20
2018-07-26T18:10:39.439Z,86.50
2018-07-26T18:13:07.114Z,89.20
2018-07-26T18:15:34.815Z,87.60
2018-07-26T18:18:02.414Z,85.50
2018-07-26T18:20:30.360Z,88.50
2018-07-26T18:22:57.976Z,90.50
2018-07-26T18:25:25.732Z,86.30
2018-07-26T18:27:53.339Z,86.00
2018-07-26T18:30:20.940Z,88.70
2018-07-26T18:32:48.559Z,88.70
2018-07-26T18:35:16.248Z,85.80
2018-07-26T18:37:43.863Z,86.40
2018-07-26T18:40:11.464Z,85.50
2018-07-26T18:42:39.079Z,92.30
2018-07-26T18:45:07.392Z,92.20
2018-07-26T18:47:35.008Z,92.20
2018-07-26T18:50:02.702Z,90.80
2018-07-26T18:52:30.395Z,91.80
2018-07-26T18:54:57.995Z,92.90
2018-07-26T18:57:25.606Z,94.30
2018-07-26T18:59:53.220Z,95.00
2018-07-26T19:02:20.878Z,95.80
2018-07-26T19:04:48.518Z,96.90
2018-07-26T19:07:16.139Z,97.40
2018-07-26T19:09:43.824Z,98.20
2018-07-26T19:12:11.475Z,98.50
2018-07-26T19:14:39.106Z,99.50
2018-07-26T19:17:06.720Z,99.90
2018-07-26T19:19:34.427Z,99.90
2018-07-26T19:22:02.093Z,99.90
2018-07-26T19:24:29.699Z,99.90
2018-07-26T19:26:57.312Z,99.90
2018-07-26T19:29:24.927Z,99.90
2018-07-26T19:31:52.523Z,99.90
2018-07-26T19:34:20.143Z,99.90
2018-07-26T19:36:47.750Z,99.90
2018-07-26T19:39:15.399Z,99.90
2018-07-26T19:41:43.295Z,99.90
2018-07-26T19:44:11.112Z,99.90
2018-07-26T19:46:38.711Z,99.90
2018-07-26T19:49:06.338Z,99.90
2018-07-26T19:51:33.935Z,99.90
2018-07-26T19:54:01.565Z,99.90
2018-07-26T19:56:29.164Z,99.90
2018-07-26T19:58:56.800Z,99.90
2018-07-26T20:01:24.411Z,99.90
2018-07-26T20:03:52.098Z,99.90
2018-07-26T20:06:19.658Z,99.90
2018-07-26T20:08:47.251Z,99.90
2018-07-26T20:11:14.873Z,99.90
2018-07-26T20:13:42.487Z,99.90
2018-07-26T20:16:10.216Z,99.90
2018-07-26T20:18:37.815Z,99.90
2018-07-26T20:21:05.443Z,99.90
2018-07-26T20:23:33.114Z,99.90
2018-07-26T20:26:00.812Z,99.90
2018-07-26T20:28:28.414Z,99.90
2018-07-26T20:30:56.039Z,99.90
2018-07-26T20:35:51.143Z,99.90
2018-07-26T20:38:18.739Z,99.90
2018-07-26T20:40:46.354Z,99.90
2018-07-26T20:43:13.950Z,99.90
2018-07-26T20:45:41.590Z,99.90
2018-07-26T20:48:09.444Z,99.90
2018-07-26T20:50:37.977Z,99.90
2018-07-26T20:53:06.219Z,99.90
2018-07-26T20:55:34.686Z,99.90
2018-07-26T20:58:03.361Z,99.90
2018-07-26T21:00:31.956Z,99.90
2018-07-26T21:03:00.419Z,99.90
2018-07-26T21:05:28.926Z,99.90
2018-07-26T21:07:56.667Z,99.90
2018-07-26T21:10:24.466Z,99.90
2018-07-26T21:12:52.811Z,99.90
2018-07-26T21:15:22.062Z,99.90
2018-07-26T21:17:50.879Z,99.90
2018-07-26T21:20:18.554Z,99.90
2018-07-26T21:22:46.345Z,99.90
2018-07-26T21:25:15.052Z,99.90
2018-07-26T21:27:44.465Z,99.90
2018-07-26T21:30:12.115Z,99.90
2018-07-26T21:32:39.749Z,99.90
2018-07-26T21:35:08.340Z,99.90
2018-07-26T21:37:36.997Z,99.90
2018-07-26T21:40:05.011Z,99.90
2018-07-26T21:42:33.027Z,99.90
2018-07-26T21:45:01.500Z,99.90
2018-07-26T21:47:30.160Z,99.90
2018-07-26T21:49:57.843Z,99.90
2018-07-26T21:52:26.277Z,99.90
2018-07-26T21:54:53.943Z,99.90
2018-07-26T21:57:21.563Z,99.90
2018-07-26T21:59:49.163Z,99.90
2018-07-26T22:02:16.814Z,99.90
2018-07-26T22:04:44.411Z,99.90
2018-07-26T22:07:12.033Z,99.90
2018-07-26T22:09:39.626Z,99.90
2018-07-26T22:12:07.260Z,99.90
2018-07-26T22:14:34.974Z,99.90
2018-07-26T22:17:02.608Z,99.90
2018-07-26T22:19:30.206Z,99.90
2018-07-26T22:21:57.876Z,99.90
2018-07-26T22:24:25.442Z,99.90
2018-07-26T22:26:53.393Z,99.90
2018-07-26T22:29:21.019Z,99.90
2018-07-26T22:31:48.717Z,99.90
2018-07-26T22:34:16.340Z,99.90
2018-07-26T22:36:43.931Z,99.90
2018-07-26T22:39:12.178Z,99.90
2018-07-26T22:41:40.012Z,99.90
2018-07-26T22:44:07.628Z,99.90
2018-07-26T22:46:35.247Z,99.90
2018-07-26T22:49:02.856Z,99.90
2018-07-26T22:51:30.463Z,99.90
2018-07-26T22:53:58.081Z,99.90
2018-07-26T22:56:25.748Z,99.90
2018-07-26T22:58:53.442Z,99.90
2018-07-26T23:01:21.047Z,99.90
2018-07-26T23:03:48.667Z,99.90
2018-07-26T23:06:16.279Z,99.90
2018-07-26T23:08:43.899Z,99.90
2018-07-26T23:11:11.595Z,99.90
2018-07-26T23:13:39.282Z,99.90
2018-07-26T23:16:06.886Z,99.90
2018-07-26T23:18:34.527Z,99.90
2018-07-26T23:21:02.171Z,99.90
2018-07-26T23:23:29.768Z,99.90
2018-07-26T23:25:57.359Z,99.90
2018-07-26T23:28:24.976Z,99.90
2018-07-26T23:30:52.571Z,99.90
2018-07-26T23:33:20.187Z,99.90
2018-07-26T23:35:47.783Z,99.90
2018-07-26T23:38:15.407Z,99.90
2018-07-26T23:40:43.003Z,99.90
2018-07-26T23:43:10.598Z,99.90
2018-07-26T23:45:38.265Z,99.90
2018-07-26T23:48:05.839Z,99.90
2018-07-26T23:50:33.455Z,99.90
2018-07-26T23:53:01.046Z,99.90
2018-07-26T23:57:56.172Z,99.90
